Time;durP1;ratioP1;P1;durP2;ratioP2;P2;SDS_P1;SDS_P2;PMS_P1;PMS_P2;Temp;Humidity;BMP_temperature;BMP_pressure;BME280_temperature;BME280_humidity;BME280_pressure;Samples;Min_cycle;Max_cycle;Signal;HPM_P1;HPM_P2
2021/08/16 00:01:47;;;;;;;19.02;9.90;;;27.80;59.00;;;;;;6077295;28;83203;-62
2021/08/16 00:04:48;;;;;;;13.55;10.45;;;27.80;58.90;;;;;;6085625;28;84248;-62
2021/08/16 00:07:49;;;;;;;12.20;9.77;;;27.80;58.80;;;;;;6082554;28;83314;-63
2021/08/16 00:10:49;;;;;;;15.43;10.55;;;27.80;58.80;;;;;;6088495;28;81908;-63
2021/08/16 00:13:50;;;;;;;15.60;9.80;;;27.80;58.80;;;;;;6078811;28;83256;-63
2021/08/16 00:16:50;;;;;;;13.95;9.77;;;27.80;58.80;;;;;;6087008;28;83733;-63
2021/08/16 00:19:50;;;;;;;12.13;9.43;;;27.70;58.90;;;;;;6086476;28;80984;-63
2021/08/16 00:22:51;;;;;;;15.02;9.80;;;27.80;59.20;;;;;;6085600;28;80455;-63
2021/08/16 00:25:52;;;;;;;13.93;10.23;;;27.80;59.20;;;;;;6082208;28;83402;-63
2021/08/16 00:28:52;;;;;;;19.08;10.63;;;27.80;59.50;;;;;;6084163;28;83636;-63
2021/08/16 00:31:53;;;;;;;17.00;10.05;;;27.80;59.50;;;;;;6069292;28;84133;-63
2021/08/16 00:34:53;;;;;;;19.35;11.23;;;27.80;59.70;;;;;;6082513;28;83546;-63
2021/08/16 00:37:54;;;;;;;15.50;11.02;;;27.80;60.40;;;;;;6082397;28;83298;-63
2021/08/16 00:40:54;;;;;;;16.75;10.95;;;27.80;60.00;;;;;;6088655;28;84461;-63
2021/08/16 00:43:55;;;;;;;16.88;11.10;;;27.70;59.90;;;;;;6107984;28;84144;-63
2021/08/16 00:46:55;;;;;;;16.23;11.55;;;27.80;60.30;;;;;;6108506;28;83328;-62
2021/08/16 00:49:56;;;;;;;15.82;11.15;;;27.70;60.10;;;;;;6090263;28;83306;-63
2021/08/16 00:52:56;;;;;;;13.15;11.10;;;27.70;60.40;;;;;;6108060;28;85288;-63
2021/08/16 00:55:56;;;;;;;16.38;11.98;;;27.70;60.60;;;;;;6090865;28;85923;-63
2021/08/16 00:58:57;;;;;;;15.20;11.20;;;27.70;60.70;;;;;;6107283;28;82783;-63
2021/08/16 01:01:57;;;;;;;16.95;11.20;;;27.70;60.70;;;;;;6108468;28;83330;-62
2021/08/16 01:04:58;;;;;;;16.67;11.13;;;27.70;60.90;;;;;;6087062;28;83663;-63
2021/08/16 01:07:58;;;;;;;15.45;10.82;;;27.70;60.70;;;;;;6088697;28;83276;-63
2021/08/16 01:10:59;;;;;;;17.63;11.38;;;27.70;60.80;;;;;;6088641;28;83052;-63
2021/08/16 01:13:59;;;;;;;19.85;10.85;;;27.70;60.80;;;;;;6098276;28;83176;-63
2021/08/16 01:17:00;;;;;;;14.88;10.82;;;27.70;60.60;;;;;;6107392;28;82961;-63
2021/08/16 01:20:00;;;;;;;17.10;10.65;;;27.70;60.70;;;;;;6100416;28;84844;-62
2021/08/16 01:23:01;;;;;;;18.67;10.32;;;27.60;60.60;;;;;;6062329;28;84085;-63
2021/08/16 01:26:01;;;;;;;13.85;10.70;;;27.60;60.50;;;;;;6083061;28;83224;-63
2021/08/16 01:29:02;;;;;;;16.98;11.48;;;27.60;60.70;;;;;;6088395;28;83850;-63
2021/08/16 01:32:02;;;;;;;16.55;11.32;;;27.60;61.40;;;;;;6108769;28;84089;-63
2021/08/16 01:35:03;;;;;;;16.80;11.13;;;27.50;60.60;;;;;;6109921;28;84089;-64
2021/08/16 01:38:03;;;;;;;16.90;11.88;;;27.50;60.80;;;;;;6093792;28;83351;-63
2021/08/16 01:41:04;;;;;;;14.55;11.07;;;27.50;60.70;;;;;;6083772;28;84931;-63
2021/08/16 01:44:04;;;;;;;14.45;10.52;;;27.50;60.60;;;;;;6057852;28;84346;-63
2021/08/16 01:47:05;;;;;;;17.58;12.15;;;27.40;60.60;;;;;;6089860;28;86056;-63
2021/08/16 01:50:05;;;;;;;15.00;10.75;;;27.40;60.80;;;;;;6077987;28;84626;-62
2021/08/16 01:53:06;;;;;;;17.85;11.95;;;27.40;60.90;;;;;;6079095;28;83349;-62
2021/08/16 01:56:06;;;;;;;17.38;12.38;;;27.40;61.00;;;;;;6080947;28;83306;-63
2021/08/16 01:59:07;;;;;;;14.82;11.07;;;27.40;61.20;;;;;;6062652;28;84678;-62
2021/08/16 02:02:07;;;;;;;14.25;10.52;;;27.40;61.10;;;;;;6091460;28;83431;-62
2021/08/16 02:05:08;;;;;;;14.02;10.30;;;27.40;61.10;;;;;;6106397;28;83666;-62
2021/08/16 02:08:08;;;;;;;15.40;10.05;;;27.40;61.00;;;;;;6106124;28;83163;-62
2021/08/16 02:11:09;;;;;;;17.65;11.40;;;27.40;61.10;;;;;;6090366;28;84273;-63
2021/08/16 02:14:09;;;;;;;15.98;10.90;;;27.40;61.00;;;;;;6103852;28;84236;-62
2021/08/16 02:17:10;;;;;;;14.60;11.20;;;27.50;61.20;;;;;;6063111;28;84860;-62
2021/08/16 02:20:10;;;;;;;16.90;10.20;;;27.50;61.10;;;;;;6089812;28;84339;-62
2021/08/16 02:23:11;;;;;;;15.20;11.40;;;27.50;61.10;;;;;;6092562;28;84121;-62
2021/08/16 02:26:11;;;;;;;17.40;10.95;;;27.50;61.00;;;;;;6104954;28;83036;-62
2021/08/16 02:29:12;;;;;;;19.27;10.75;;;27.50;60.80;;;;;;6103511;28;83063;-62
2021/08/16 02:32:12;;;;;;;12.73;10.13;;;27.40;60.40;;;;;;6105265;28;83106;-62
2021/08/16 02:35:13;;;;;;;13.77;10.45;;;27.40;60.50;;;;;;6104135;28;83149;-61
2021/08/16 02:38:13;;;;;;;15.27;10.00;;;27.30;60.30;;;;;;6102545;28;84124;-62
2021/08/16 02:41:14;;;;;;;14.32;10.10;;;27.30;60.00;;;;;;6087200;28;85933;-61
2021/08/16 02:44:14;;;;;;;18.35;9.90;;;27.30;60.10;;;;;;6084006;28;84498;-61
2021/08/16 02:47:16;;;;;;;15.55;9.93;;;27.30;60.20;;;;;;6110075;28;83014;-62
2021/08/16 02:50:16;;;;;;;19.25;10.77;;;27.30;59.90;;;;;;6105785;28;80205;-62
2021/08/16 02:53:17;;;;;;;15.07;10.32;;;27.30;60.10;;;;;;6103280;28;83957;-62
2021/08/16 02:56:17;;;;;;;16.08;10.82;;;27.30;60.90;;;;;;6097286;28;83142;-62
2021/08/16 02:59:18;;;;;;;20.02;11.23;;;27.30;60.40;;;;;;6104365;28;83181;-62
2021/08/16 03:02:18;;;;;;;22.15;11.18;;;27.30;60.50;;;;;;6087709;28;85741;-63
2021/08/16 03:05:19;;;;;;;15.98;10.02;;;27.30;60.50;;;;;;6104534;28;82960;-62
2021/08/16 03:08:19;;;;;;;18.48;10.63;;;27.30;60.50;;;;;;6092256;28;84109;-63
2021/08/16 03:11:20;;;;;;;17.15;11.00;;;27.30;60.50;;;;;;6103087;28;83090;-63
2021/08/16 03:14:20;;;;;;;15.55;10.32;;;27.30;60.50;;;;;;6103784;28;83748;-63
2021/08/16 03:17:21;;;;;;;16.63;10.02;;;27.30;60.40;;;;;;6102680;28;83207;-62
2021/08/16 03:20:21;;;;;;;17.20;10.45;;;27.20;60.40;;;;;;6105190;28;83727;-62
2021/08/16 03:23:22;;;;;;;17.98;10.57;;;27.30;60.40;;;;;;6089941;28;83190;-62
2021/08/16 03:26:22;;;;;;;14.80;10.52;;;27.30;60.30;;;;;;6105734;28;83024;-62
2021/08/16 03:29:23;;;;;;;12.95;10.02;;;27.20;59.80;;;;;;6104867;28;83533;-63
2021/08/16 03:32:23;;;;;;;14.90;10.38;;;27.20;59.60;;;;;;6104889;28;83072;-63
2021/08/16 03:35:24;;;;;;;12.48;9.00;;;27.20;59.60;;;;;;6104569;28;83519;-63
2021/08/16 03:38:24;;;;;;;15.60;9.90;;;27.20;59.50;;;;;;6108194;28;82884;-63
2021/08/16 03:41:25;;;;;;;14.75;10.13;;;27.20;59.40;;;;;;6107239;28;80591;-63
2021/08/16 03:44:25;;;;;;;16.15;10.13;;;27.20;59.50;;;;;;6103881;28;82994;-63
2021/08/16 03:47:25;;;;;;;14.57;10.05;;;27.10;59.30;;;;;;6104107;28;84077;-63
2021/08/16 03:50:26;;;;;;;12.77;9.77;;;27.10;59.40;;;;;;6104802;28;82947;-63
2021/08/16 03:53:27;;;;;;;17.77;10.07;;;27.10;59.30;;;;;;6107129;28;83305;-63
2021/08/16 03:56:27;;;;;;;16.23;10.20;;;27.20;59.50;;;;;;6102183;28;82765;-63
2021/08/16 03:59:28;;;;;;;16.65;9.77;;;27.20;59.50;;;;;;6076737;28;84989;-63
2021/08/16 04:02:28;;;;;;;14.07;9.40;;;27.20;59.50;;;;;;6094639;28;83568;-63
2021/08/16 04:05:29;;;;;;;15.23;9.80;;;27.20;59.40;;;;;;6107367;28;81324;-63
2021/08/16 04:08:29;;;;;;;12.95;8.88;;;27.20;59.20;;;;;;6109259;28;81840;-63
2021/08/16 04:11:30;;;;;;;13.98;9.35;;;27.30;59.30;;;;;;6106733;28;80349;-63
2021/08/16 04:14:30;;;;;;;16.13;10.23;;;27.30;59.30;;;;;;6088934;28;80474;-62
2021/08/16 04:17:31;;;;;;;15.68;9.57;;;27.20;59.50;;;;;;6103749;28;87152;-62
2021/08/16 04:20:31;;;;;;;15.75;10.25;;;27.20;59.40;;;;;;6108209;28;82182;-62
2021/08/16 04:23:32;;;;;;;13.02;10.02;;;27.10;59.40;;;;;;6105364;28;83064;-61
2021/08/16 04:26:32;;;;;;;17.00;9.93;;;27.20;59.50;;;;;;6102846;28;83017;-62
2021/08/16 04:29:32;;;;;;;17.83;10.32;;;27.10;59.50;;;;;;6108823;28;84058;-62
2021/08/16 04:32:33;;;;;;;16.92;10.98;;;27.20;59.50;;;;;;6109588;28;83191;-63
2021/08/16 04:35:33;;;;;;;18.63;10.52;;;27.10;59.40;;;;;;6105160;28;83169;-63
2021/08/16 04:38:35;;;;;;;15.93;10.00;;;27.20;59.50;;;;;;6110503;28;82978;-63
2021/08/16 04:41:35;;;;;;;16.55;10.30;;;27.20;59.60;;;;;;6083645;28;83512;-62
2021/08/16 04:44:36;;;;;;;15.50;10.05;;;27.20;59.50;;;;;;6097353;28;83516;-61
2021/08/16 04:47:36;;;;;;;15.23;10.02;;;27.20;59.60;;;;;;6088404;28;84281;-62
2021/08/16 04:50:37;;;;;;;17.55;11.50;;;27.20;59.80;;;;;;6085959;28;83498;-61
2021/08/16 04:53:37;;;;;;;14.13;10.55;;;27.20;59.60;;;;;;6105181;28;83502;-61
2021/08/16 04:56:38;;;;;;;13.30;10.30;;;27.20;59.60;;;;;;6105710;28;83701;-61
2021/08/16 04:59:39;;;;;;;16.50;11.07;;;27.20;59.90;;;;;;6107230;28;83301;-62
2021/08/16 05:02:39;;;;;;;19.38;11.38;;;27.30;60.20;;;;;;6105970;28;83146;-61
2021/08/16 05:05:47;;;;;;;18.98;12.02;;;27.30;60.30;;;;;;6109935;28;83706;-62
2021/08/16 05:08:48;;;;;;;21.73;12.05;;;27.30;60.30;;;;;;6107881;28;83266;-63
2021/08/16 05:11:48;;;;;;;21.52;12.25;;;27.40;60.80;;;;;;6108633;28;83324;-63
2021/08/16 05:14:49;;;;;;;20.60;12.70;;;27.30;60.70;;;;;;6111179;28;83406;-64
2021/08/16 05:17:49;;;;;;;21.17;12.60;;;27.30;61.30;;;;;;6111156;28;84086;-64
2021/08/16 05:20:49;;;;;;;17.90;9.95;;;27.30;61.30;;;;;;6078110;28;82965;-64
2021/08/16 05:23:50;;;;;;;20.02;10.77;;;27.30;60.80;;;;;;6086728;28;82924;-64
2021/08/16 05:26:50;;;;;;;19.77;10.77;;;27.30;60.20;;;;;;6073530;28;83388;-63
2021/08/16 05:29:51;;;;;;;21.17;10.27;;;27.10;60.50;;;;;;6087445;28;83570;-63
2021/08/16 05:32:51;;;;;;;19.55;11.57;;;27.10;61.10;;;;;;6084242;28;83313;-64
2021/08/16 05:35:52;;;;;;;26.38;11.85;;;27.00;61.90;;;;;;6088490;28;83578;-64
2021/08/16 05:38:52;;;;;;;19.35;11.55;;;27.10;62.20;;;;;;6085234;28;84692;-63
2021/08/16 05:41:53;;;;;;;25.38;11.25;;;27.20;62.80;;;;;;6087705;28;83084;-64
2021/08/16 05:44:53;;;;;;;17.00;10.35;;;27.30;62.10;;;;;;6085423;28;83149;-66
2021/08/16 05:47:54;;;;;;;23.42;11.45;;;27.40;61.50;;;;;;6082195;28;83206;-65
2021/08/16 05:50:54;;;;;;;20.92;11.57;;;27.40;61.40;;;;;;6084005;28;83790;-64
2021/08/16 05:53:55;;;;;;;21.20;11.57;;;27.40;62.30;;;;;;6089731;28;85382;-62
2021/08/16 05:56:55;;;;;;;24.75;10.95;;;27.50;63.00;;;;;;6107699;28;84521;-64
2021/08/16 05:59:56;;;;;;;21.27;12.90;;;27.50;63.20;;;;;;6108444;28;85193;-61
2021/08/16 06:02:57;;;;;;;22.10;12.32;;;27.60;62.70;;;;;;6084626;28;83333;-63
2021/08/16 06:05:57;;;;;;;32.70;11.88;;;27.60;63.50;;;;;;6075313;28;83521;-63
2021/08/16 06:08:59;;;;;;;19.23;11.18;;;27.70;63.80;;;;;;6070393;28;84012;-62
2021/08/16 06:11:59;;;;;;;18.48;11.48;;;27.70;63.50;;;;;;6076201;28;84083;-63
2021/08/16 06:15:00;;;;;;;22.67;12.27;;;27.70;64.70;;;;;;6077083;28;83199;-63
2021/08/16 06:18:00;;;;;;;18.65;11.68;;;27.60;63.80;;;;;;6070485;28;82911;-62
2021/08/16 06:21:01;;;;;;;23.02;12.02;;;27.70;64.10;;;;;;6078972;28;84547;-61
2021/08/16 06:24:01;;;;;;;28.85;12.80;;;27.70;64.20;;;;;;6076002;28;83972;-63
2021/08/16 06:27:02;;;;;;;22.98;13.18;;;27.70;64.00;;;;;;6077222;28;83248;-62
2021/08/16 06:30:02;;;;;;;17.00;10.65;;;27.70;64.10;;;;;;6067500;28;85359;-62
2021/08/16 06:33:03;;;;;;;23.63;12.02;;;27.70;63.30;;;;;;6097814;28;83361;-62
2021/08/16 06:36:03;;;;;;;23.60;11.95;;;27.70;63.60;;;;;;6115162;28;84358;-62
2021/08/16 06:39:04;;;;;;;26.00;12.32;;;27.70;63.10;;;;;;6111888;28;83516;-64
2021/08/16 06:42:04;;;;;;;17.98;11.95;;;27.70;63.00;;;;;;6103835;28;83801;-62
2021/08/16 06:45:05;;;;;;;20.67;11.40;;;27.70;63.90;;;;;;6102738;28;83429;-62
2021/08/16 06:48:06;;;;;;;18.45;11.50;;;27.70;62.30;;;;;;6095778;28;83168;-62
2021/08/16 06:51:07;;;;;;;24.05;11.80;;;27.70;62.50;;;;;;6092004;28;83737;-63
2021/08/16 06:54:07;;;;;;;16.20;11.55;;;27.80;63.70;;;;;;6081191;28;86067;-63
2021/08/16 06:57:08;;;;;;;18.20;11.48;;;27.80;63.20;;;;;;6113319;28;83265;-62
2021/08/16 07:00:08;;;;;;;19.15;10.55;;;27.80;62.20;;;;;;6107349;28;86081;-63
2021/08/16 07:03:10;;;;;;;21.70;11.65;;;27.80;62.50;;;;;;6113616;28;83254;-63
2021/08/16 07:06:10;;;;;;;17.02;11.63;;;27.70;62.60;;;;;;6090723;28;85153;-63
2021/08/16 07:09:10;;;;;;;14.93;11.38;;;27.80;62.60;;;;;;6110253;28;84736;-64
2021/08/16 07:12:11;;;;;;;19.75;11.90;;;27.80;62.40;;;;;;6112520;28;84366;-64
2021/08/16 07:15:11;;;;;;;17.23;11.38;;;27.80;62.70;;;;;;6108652;28;83509;-65
2021/08/16 07:18:12;;;;;;;26.45;13.05;;;27.80;62.60;;;;;;6095708;28;82929;-63
2021/08/16 07:21:12;;;;;;;21.73;12.57;;;27.80;62.60;;;;;;6092304;28;84246;-61
2021/08/16 07:24:14;;;;;;;18.55;11.77;;;27.80;62.40;;;;;;6111906;28;83870;-62
2021/08/16 07:27:14;;;;;;;22.60;13.45;;;27.90;62.70;;;;;;6077879;28;83650;-61
2021/08/16 07:30:14;;;;;;;22.65;12.90;;;27.90;62.50;;;;;;6067434;28;84924;-61
2021/08/16 07:33:15;;;;;;;24.92;13.07;;;27.90;63.00;;;;;;6077917;28;84049;-62
2021/08/16 07:36:15;;;;;;;29.27;12.85;;;27.90;63.00;;;;;;6081791;28;83095;-61
2021/08/16 07:39:16;;;;;;;26.65;13.15;;;27.90;62.80;;;;;;6078911;28;82870;-61
2021/08/16 07:42:18;;;;;;;28.17;13.15;;;27.90;62.80;;;;;;6099947;28;83293;-62
2021/08/16 07:45:19;;;;;;;24.65;12.63;;;27.90;62.70;;;;;;6105319;28;83367;-61
2021/08/16 07:48:19;;;;;;;20.98;12.38;;;27.90;62.40;;;;;;6104479;28;86657;-61
2021/08/16 07:51:20;;;;;;;24.67;12.27;;;27.90;62.10;;;;;;6110200;28;83203;-61
2021/08/16 07:54:20;;;;;;;18.98;12.43;;;27.90;62.50;;;;;;6098991;28;85729;-61
2021/08/16 07:57:21;;;;;;;24.63;12.43;;;27.90;62.30;;;;;;6073824;28;84318;-61
2021/08/16 08:00:21;;;;;;;26.65;11.40;;;27.90;62.50;;;;;;6077594;28;83121;-60
2021/08/16 08:03:22;;;;;;;25.02;12.35;;;27.90;62.60;;;;;;6079090;28;85150;-62
2021/08/16 08:06:23;;;;;;;26.90;13.68;;;28.00;62.90;;;;;;6081141;28;86013;-62
2021/08/16 08:09:23;;;;;;;24.58;11.95;;;27.90;62.70;;;;;;6078053;28;83290;-61
2021/08/16 08:12:24;;;;;;;22.90;13.52;;;28.00;62.80;;;;;;6077764;28;83199;-61
2021/08/16 08:15:24;;;;;;;26.27;13.23;;;28.00;62.50;;;;;;6086735;28;82962;-61
2021/08/16 08:18:25;;;;;;;22.38;12.25;;;28.00;62.50;;;;;;6084787;28;84349;-62
2021/08/16 08:21:26;;;;;;;19.63;12.27;;;28.00;62.70;;;;;;6085661;28;83139;-62
2021/08/16 08:24:28;;;;;;;17.92;13.07;;;28.00;63.30;;;;;;6069486;28;83067;-62
2021/08/16 08:27:28;;;;;;;19.17;13.43;;;28.00;63.80;;;;;;6056608;28;86088;-62
2021/08/16 08:30:29;;;;;;;18.05;11.95;;;28.00;63.20;;;;;;6076635;28;83564;-62
2021/08/16 08:33:29;;;;;;;19.17;13.50;;;28.10;63.20;;;;;;6086405;28;83312;-62
2021/08/16 08:36:30;;;;;;;20.65;12.25;;;28.00;62.90;;;;;;6091804;28;85288;-63
2021/08/16 08:39:30;;;;;;;21.95;12.43;;;28.00;62.60;;;;;;6089558;28;83124;-63
2021/08/16 08:42:31;;;;;;;20.75;11.93;;;28.00;62.40;;;;;;6090058;28;86283;-65
2021/08/16 08:45:31;;;;;;;19.33;11.90;;;28.10;62.30;;;;;;6084785;28;84176;-63
2021/08/16 08:48:32;;;;;;;23.42;12.27;;;28.10;62.20;;;;;;6087954;28;83698;-62
2021/08/16 08:51:32;;;;;;;23.30;12.07;;;28.10;62.20;;;;;;6084359;28;83152;-63
2021/08/16 08:54:35;;;;;;;20.42;12.68;;;28.10;62.40;;;;;;6084018;28;83914;-62
2021/08/16 08:57:35;;;;;;;24.45;12.85;;;28.10;61.90;;;;;;6058582;28;84134;-62
2021/08/16 09:00:36;;;;;;;22.40;12.25;;;28.10;62.00;;;;;;6061391;28;82930;-62
2021/08/16 09:03:37;;;;;;;20.83;11.32;;;28.10;61.80;;;;;;6068519;28;83273;-62
2021/08/16 09:06:37;;;;;;;21.88;12.05;;;28.20;61.50;;;;;;6061189;28;84225;-63
2021/08/16 09:09:38;;;;;;;17.67;11.90;;;28.20;61.30;;;;;;6067584;28;85563;-62
2021/08/16 09:12:38;;;;;;;19.80;11.27;;;28.20;61.30;;;;;;6061467;28;84328;-63
2021/08/16 09:15:39;;;;;;;19.58;11.85;;;28.20;61.20;;;;;;6061878;28;84192;-62
2021/08/16 09:18:40;;;;;;;19.63;11.30;;;28.20;61.40;;;;;;6060002;28;83495;-61
2021/08/16 09:21:44;;;;;;;16.92;11.05;;;28.20;61.90;;;;;;6059506;28;83328;-61
2021/08/16 09:24:44;;;;;;;21.30;11.90;;;28.20;61.70;;;;;;6057461;28;84100;-63
2021/08/16 09:27:45;;;;;;;18.17;11.25;;;28.20;61.60;;;;;;6041613;28;83195;-61
2021/08/16 09:30:46;;;;;;;18.08;11.75;;;28.20;61.50;;;;;;6032045;28;83713;-63
2021/08/16 09:33:46;;;;;;;18.63;11.93;;;28.20;60.90;;;;;;6036553;28;83536;-62
2021/08/16 09:36:47;;;;;;;17.38;12.13;;;28.30;61.20;;;;;;6035342;28;83499;-62
2021/08/16 09:39:47;;;;;;;18.75;11.60;;;28.30;61.70;;;;;;6037951;28;82932;-62
2021/08/16 09:42:48;;;;;;;23.42;11.00;;;28.40;62.40;;;;;;6032898;28;84040;-60
2021/08/16 09:45:48;;;;;;;19.75;11.32;;;28.30;61.70;;;;;;6028614;28;85122;-60
2021/08/16 09:48:49;;;;;;;18.83;10.63;;;28.10;61.50;;;;;;6034563;28;85828;-60
2021/08/16 09:51:49;;;;;;;14.20;8.80;;;28.00;61.50;;;;;;6034604;28;82809;-62
2021/08/16 09:54:50;;;;;;;18.00;8.80;;;28.00;60.80;;;;;;6049787;28;85587;-62
2021/08/16 09:57:50;;;;;;;17.77;9.50;;;28.10;59.60;;;;;;6093678;28;80483;-61
2021/08/16 10:00:51;;;;;;;12.05;9.18;;;28.00;59.70;;;;;;6088267;28;86336;-61
2021/08/16 10:03:51;;;;;;;16.50;9.05;;;28.10;60.10;;;;;;6120122;28;81023;-62
2021/08/16 10:06:52;;;;;;;12.77;8.77;;;28.00;60.50;;;;;;6078220;28;80556;-61
2021/08/16 10:09:52;;;;;;;13.65;9.00;;;28.00;60.60;;;;;;6083817;28;80800;-61
2021/08/16 10:12:53;;;;;;;18.63;9.00;;;28.00;60.90;;;;;;6107042;28;81594;-61
2021/08/16 10:15:53;;;;;;;15.90;8.60;;;28.00;60.10;;;;;;6109213;28;81581;-61
2021/08/16 10:18:54;;;;;;;14.20;8.02;;;28.10;58.80;;;;;;6110983;28;80785;-60
2021/08/16 10:21:54;;;;;;;10.80;7.18;;;28.10;58.80;;;;;;6079475;28;80718;-61
2021/08/16 10:24:55;;;;;;;9.82;7.75;;;28.20;58.90;;;;;;6087477;28;80651;-61
2021/08/16 10:27:56;;;;;;;10.95;6.93;;;28.30;57.00;;;;;;6083754;28;82027;-62
2021/08/16 10:30:56;;;;;;;10.48;6.57;;;28.40;56.10;;;;;;6087813;28;81190;-62
2021/08/16 10:33:57;;;;;;;10.95;7.10;;;28.30;56.30;;;;;;6091729;28;80752;-62
2021/08/16 10:36:57;;;;;;;11.93;6.97;;;28.40;56.30;;;;;;6095698;28;81239;-62
2021/08/16 10:39:58;;;;;;;9.40;6.75;;;28.30;56.40;;;;;;6087453;28;81596;-61
2021/08/16 10:42:59;;;;;;;9.50;7.13;;;28.40;55.70;;;;;;6114748;28;81795;-62
2021/08/16 10:45:59;;;;;;;15.77;7.93;;;28.40;56.40;;;;;;6110922;28;80828;-61
2021/08/16 10:49:00;;;;;;;12.35;6.65;;;28.30;56.80;;;;;;6092500;28;80732;-61
2021/08/16 10:52:00;;;;;;;20.98;7.82;;;28.40;56.50;;;;;;6087025;28;81623;-61
2021/08/16 10:55:01;;;;;;;9.80;6.70;;;28.50;55.50;;;;;;6088101;28;81164;-61
2021/08/16 10:58:01;;;;;;;10.23;6.65;;;28.50;55.30;;;;;;6118323;28;80603;-61
2021/08/16 11:01:02;;;;;;;8.45;6.53;;;28.60;54.90;;;;;;6114723;28;80514;-60
2021/08/16 11:04:02;;;;;;;11.15;6.93;;;28.70;54.80;;;;;;6093732;28;82255;-63
2021/08/16 11:07:03;;;;;;;13.32;7.22;;;28.70;55.10;;;;;;6110511;28;81663;-61
2021/08/16 11:10:03;;;;;;;12.02;6.78;;;28.60;56.20;;;;;;6118960;28;81700;-62
2021/08/16 11:13:04;;;;;;;12.43;7.13;;;28.70;55.40;;;;;;6074926;28;83632;-61
2021/08/16 11:16:04;;;;;;;12.07;8.30;;;28.70;55.60;;;;;;6105412;28;80399;-62
2021/08/16 11:19:05;;;;;;;13.18;8.40;;;28.90;55.00;;;;;;6112683;28;81499;-61
2021/08/16 11:22:05;;;;;;;11.77;7.97;;;29.00;53.50;;;;;;6110245;28;80533;-62
2021/08/16 11:25:06;;;;;;;14.13;8.50;;;28.90;54.10;;;;;;6114248;28;82740;-62
2021/08/16 11:28:07;;;;;;;10.38;7.07;;;28.80;54.50;;;;;;6094232;28;81741;-62
2021/08/16 11:31:07;;;;;;;12.80;6.10;;;28.80;54.20;;;;;;6110522;28;82239;-61
2021/08/16 11:34:08;;;;;;;6.90;5.45;;;28.90;52.80;;;;;;6113694;28;80621;-62
2021/08/16 11:37:08;;;;;;;7.82;5.60;;;29.10;51.00;;;;;;6107597;28;80758;-61
2021/08/16 11:40:09;;;;;;;8.23;5.97;;;29.20;50.20;;;;;;6113017;28;81712;-62
2021/08/16 11:43:09;;;;;;;12.07;6.25;;;29.20;50.70;;;;;;6108211;28;81893;-62
2021/08/16 11:46:10;;;;;;;8.63;5.63;;;29.30;50.20;;;;;;6109861;28;80457;-61
2021/08/16 11:49:10;;;;;;;11.60;6.95;;;29.10;51.10;;;;;;6108730;28;82449;-61
2021/08/16 11:52:11;;;;;;;9.85;6.07;;;29.00;51.20;;;;;;6098535;28;88345;-63
2021/08/16 11:55:11;;;;;;;9.02;5.63;;;28.90;51.90;;;;;;6114351;28;80551;-62
2021/08/16 11:58:12;;;;;;;8.93;5.68;;;29.00;52.00;;;;;;6113730;28;81766;-62
2021/08/16 12:01:12;;;;;;;9.63;5.82;;;28.90;52.10;;;;;;6109371;28;81627;-63
2021/08/16 12:04:13;;;;;;;7.85;5.38;;;28.90;52.90;;;;;;6113899;28;81935;-62
2021/08/16 12:07:13;;;;;;;9.77;5.57;;;29.20;50.50;;;;;;6113558;28;81331;-62
2021/08/16 12:10:14;;;;;;;16.17;10.43;;;29.30;50.40;;;;;;6110878;28;81918;-61
2021/08/16 12:13:14;;;;;;;10.68;7.75;;;29.40;50.30;;;;;;6093126;28;83116;-62
2021/08/16 12:16:15;;;;;;;10.65;6.07;;;29.30;51.10;;;;;;6113301;28;83218;-62
2021/08/16 12:19:16;;;;;;;8.27;6.20;;;29.40;50.00;;;;;;6113896;28;80664;-62
2021/08/16 12:22:16;;;;;;;7.65;6.10;;;29.30;50.70;;;;;;6116530;28;80682;-62
2021/08/16 12:25:16;;;;;;;11.57;6.25;;;29.20;51.50;;;;;;6113146;28;80619;-62
2021/08/16 12:28:17;;;;;;;10.25;5.88;;;29.00;52.10;;;;;;6112793;28;80180;-60
2021/08/16 12:31:23;;;;;;;11.52;6.15;;;28.90;52.90;;;;;;6096795;28;81037;-61
2021/08/16 12:34:24;;;;;;;11.15;6.10;;;29.00;51.80;;;;;;6111386;28;80217;-62
2021/08/16 12:37:24;;;;;;;8.27;6.05;;;29.20;51.00;;;;;;6110666;28;80373;-61
2021/08/16 12:40:25;;;;;;;8.20;5.93;;;29.30;51.00;;;;;;6073004;28;80406;-62
2021/08/16 12:43:25;;;;;;;9.07;5.60;;;29.40;51.00;;;;;;6089613;28;80502;-61
2021/08/16 12:46:26;;;;;;;11.98;7.13;;;29.60;50.20;;;;;;6078958;28;84518;-62
2021/08/16 12:49:26;;;;;;;7.65;5.70;;;29.60;50.70;;;;;;6085216;28;80611;-62
2021/08/16 12:52:27;;;;;;;17.40;6.55;;;29.50;50.90;;;;;;6083482;28;81221;-62
2021/08/16 12:55:27;;;;;;;10.70;6.15;;;29.50;51.10;;;;;;6089368;28;80107;-62
2021/08/16 12:58:28;;;;;;;9.63;5.78;;;29.60;50.00;;;;;;6109620;28;81145;-62
2021/08/16 13:01:28;;;;;;;9.80;5.80;;;29.70;50.10;;;;;;6091391;28;81129;-62
2021/08/16 13:04:29;;;;;;;8.93;5.43;;;29.50;50.50;;;;;;6099560;28;80874;-62
2021/08/16 13:07:29;;;;;;;10.18;5.95;;;29.70;49.50;;;;;;6109906;28;81791;-63
2021/08/16 13:10:30;;;;;;;9.98;5.68;;;29.70;49.90;;;;;;6089074;28;81016;-62
2021/08/16 13:13:30;;;;;;;12.15;5.78;;;29.60;50.30;;;;;;6084968;28;80359;-61
2021/08/16 13:16:31;;;;;;;7.18;5.60;;;29.50;50.50;;;;;;6108002;28;81836;-61
2021/08/16 13:19:31;;;;;;;9.02;6.05;;;29.30;51.60;;;;;;6100175;28;80794;-62
2021/08/16 13:22:34;;;;;;;10.43;6.25;;;29.30;52.00;;;;;;6112372;28;80152;-63
2021/08/16 13:25:34;;;;;;;11.50;5.78;;;29.20;52.40;;;;;;6091826;28;80507;-61
2021/08/16 13:28:35;;;;;;;8.25;5.57;;;29.20;52.50;;;;;;6112596;28;80487;-61
2021/08/16 13:31:35;;;;;;;9.75;5.75;;;29.20;52.60;;;;;;6095284;28;80488;-61
2021/08/16 13:34:36;;;;;;;10.43;5.70;;;29.10;53.10;;;;;;6115891;28;81137;-62
2021/08/16 13:37:36;;;;;;;13.40;6.28;;;29.10;53.30;;;;;;6110499;28;80502;-62
2021/08/16 13:40:37;;;;;;;8.27;5.50;;;29.10;54.00;;;;;;6101076;28;80709;-62
2021/08/16 13:43:37;;;;;;;9.88;5.53;;;29.00;54.10;;;;;;6117099;28;80646;-63
2021/08/16 13:46:38;;;;;;;12.27;5.80;;;29.00;53.50;;;;;;6109133;28;80420;-63
2021/08/16 13:49:38;;;;;;;6.97;5.25;;;29.00;54.20;;;;;;6092788;28;80741;-63
2021/08/16 13:52:39;;;;;;;9.32;5.95;;;29.10;53.20;;;;;;6093954;28;80794;-63
2021/08/16 13:55:39;;;;;;;10.32;6.18;;;29.20;52.70;;;;;;6114390;28;82633;-62
2021/08/16 13:58:40;;;;;;;10.52;6.10;;;29.20;52.70;;;;;;6112097;28;80336;-63
2021/08/16 14:01:40;;;;;;;17.95;7.63;;;29.30;52.30;;;;;;6077644;28;82035;-63
2021/08/16 14:04:41;;;;;;;10.07;7.05;;;29.30;51.80;;;;;;6114008;28;80528;-63
2021/08/16 14:07:41;;;;;;;8.07;5.80;;;29.30;51.90;;;;;;6112042;28;80818;-62
2021/08/16 14:10:42;;;;;;;7.63;5.45;;;29.40;51.00;;;;;;6108427;28;82798;-63
2021/08/16 14:13:42;;;;;;;7.53;5.75;;;29.40;50.10;;;;;;6096643;28;81067;-61
2021/08/16 14:16:43;;;;;;;8.73;5.07;;;29.40;50.50;;;;;;6098517;28;80519;-62
2021/08/16 14:19:43;;;;;;;8.68;5.72;;;29.50;50.20;;;;;;6084012;28;80677;-62
2021/08/16 14:22:44;;;;;;;15.70;5.30;;;29.50;50.60;;;;;;6085541;28;80445;-61
2021/08/16 14:25:44;;;;;;;9.15;4.93;;;29.50;50.90;;;;;;6088995;28;81507;-62
2021/08/16 14:28:45;;;;;;;9.00;5.40;;;29.50;50.80;;;;;;6097493;28;80513;-62
2021/08/16 14:31:45;;;;;;;12.23;5.32;;;29.50;50.80;;;;;;6115947;28;81541;-62
2021/08/16 14:34:46;;;;;;;16.80;5.63;;;29.50;51.50;;;;;;6106230;28;81658;-62
2021/08/16 14:37:46;;;;;;;6.45;4.95;;;29.40;51.40;;;;;;6087878;28;82065;-62
2021/08/16 14:40:47;;;;;;;8.45;5.47;;;29.40;51.20;;;;;;6086432;28;81215;-62
2021/08/16 14:43:47;;;;;;;10.05;5.43;;;29.30;51.30;;;;;;6080374;28;80589;-62
2021/08/16 14:46:48;;;;;;;8.80;5.03;;;29.30;51.50;;;;;;6085869;28;80273;-62
2021/08/16 14:49:48;;;;;;;7.57;5.05;;;29.30;51.90;;;;;;6090104;28;81166;-62
2021/08/16 14:52:49;;;;;;;11.00;5.07;;;29.20;51.90;;;;;;6084302;28;81624;-62
2021/08/16 14:55:49;;;;;;;9.07;5.30;;;29.20;51.40;;;;;;6110815;28;80924;-62
2021/08/16 14:58:50;;;;;;;12.75;5.75;;;29.20;51.10;;;;;;6111029;28;80403;-62
2021/08/16 15:01:50;;;;;;;10.40;6.30;;;29.20;51.40;;;;;;6094511;28;81448;-62
2021/08/16 15:04:51;;;;;;;13.23;5.97;;;29.20;50.80;;;;;;6087650;28;80340;-63
2021/08/16 15:07:51;;;;;;;16.58;5.68;;;29.20;50.70;;;;;;6087876;28;80742;-62
2021/08/16 15:10:53;;;;;;;7.32;5.07;;;29.20;50.80;;;;;;6087364;28;81063;-63
2021/08/16 15:13:53;;;;;;;11.18;5.57;;;29.20;50.90;;;;;;6105241;28;81981;-63
2021/08/16 15:16:54;;;;;;;9.55;4.70;;;29.20;50.90;;;;;;6104249;28;81450;-63
2021/08/16 15:19:55;;;;;;;9.00;5.68;;;29.10;51.10;;;;;;6104064;28;80881;-63
2021/08/16 15:22:55;;;;;;;7.10;4.75;;;29.10;51.70;;;;;;6110374;28;80593;-62